createdAt,value
2022-08-03T00:02:22.317Z,100235.41
2022-08-03T00:04:53.172Z,100237.72
2022-08-03T00:07:23.787Z,100242.25
2022-08-03T00:09:54.655Z,100241.91
2022-08-03T00:12:24.502Z,100242.28
2022-08-03T00:14:56.496Z,100244.59
2022-08-03T00:17:27.768Z,100238.88
2022-08-03T00:19:59.188Z,100244.81
2022-08-03T00:22:28.892Z,100242.75
2022-08-03T00:25:01.013Z,100246.12
2022-08-03T00:27:32.692Z,100249.84
2022-08-03T00:30:06.577Z,100255.06
2022-08-03T00:32:37.220Z,100246.97
2022-08-03T00:35:32.599Z,100250.87
2022-08-03T00:38:02.403Z,100253.47
2022-08-03T00:40:34.938Z,100247.47
2022-08-03T00:43:06.289Z,100253.63
2022-08-03T00:45:40.877Z,100248.75
2022-08-03T00:48:19.743Z,100251.00
2022-08-03T00:51:02.676Z,100252.44
2022-08-03T00:53:32.787Z,100254.13
2022-08-03T00:56:09.439Z,100254.81
2022-08-03T00:58:38.606Z,100256.06
2022-08-03T01:01:09.952Z,100254.47
2022-08-03T01:03:39.759Z,100251.69
2022-08-03T01:06:21.531Z,100258.03
2022-08-03T01:08:59.339Z,100254.19
2022-08-03T01:12:01.206Z,100257.19
2022-08-03T01:17:30.165Z,100263.78
2022-08-03T01:20:08.305Z,100263.00
2022-08-03T01:23:13.988Z,100254.94
2022-08-03T01:26:01.267Z,100261.37
2022-08-03T01:28:40.546Z,100257.28
2022-08-03T01:31:13.075Z,100257.06
2022-08-03T01:33:53.197Z,100253.78
2022-08-03T01:36:28.116Z,100258.59
2022-08-03T01:39:04.315Z,100255.53
2022-08-03T01:41:40.906Z,100263.22
2022-08-03T01:44:29.090Z,100254.56
2022-08-03T01:47:03.560Z,100261.91
2022-08-03T01:49:40.157Z,100259.03
2022-08-03T01:52:12.365Z,100261.81
2022-08-03T01:54:50.314Z,100249.25
2022-08-03T01:57:22.674Z,100259.78
2022-08-03T01:59:57.885Z,100253.19
2022-08-03T02:02:34.611Z,100259.78
2022-08-03T02:05:11.159Z,100256.81
2022-08-03T02:07:47.285Z,100263.91
2022-08-03T02:10:35.416Z,100258.31
2022-08-03T02:13:08.046Z,100260.31
2022-08-03T02:15:40.538Z,100261.19
2022-08-03T02:18:12.351Z,100269.16
2022-08-03T02:20:45.931Z,100259.00
2022-08-03T02:23:20.744Z,100257.87
2022-08-03T02:25:56.916Z,100261.75
2022-08-03T02:28:35.477Z,100260.59
2022-08-03T02:31:15.158Z,100257.22
2022-08-03T02:33:58.030Z,100264.66
2022-08-03T02:36:32.341Z,100272.28
2022-08-03T02:39:06.124Z,100263.87
2022-08-03T02:41:43.662Z,100268.38
2022-08-03T02:44:14.938Z,100265.38
2022-08-03T02:46:48.799Z,100268.44
2022-08-03T02:49:40.779Z,100258.47
2022-08-03T02:52:13.093Z,100257.00
2022-08-03T02:54:46.090Z,100261.31
2022-08-03T02:57:21.635Z,100263.31
2022-08-03T02:59:54.376Z,100267.59
2022-08-03T03:02:29.326Z,100270.13
2022-08-03T03:05:52.241Z,100266.28
2022-08-03T03:07:53.303Z,100269.66
2022-08-03T03:10:27.357Z,100267.28
2022-08-03T03:13:00.472Z,100262.88
2022-08-03T03:15:31.792Z,100268.97
2022-08-03T03:18:02.598Z,100263.84
2022-08-03T03:20:33.208Z,100262.44
2022-08-03T03:23:04.065Z,100269.38
2022-08-03T03:25:34.228Z,100265.59
2022-08-03T03:28:07.016Z,100270.87
2022-08-03T03:30:39.628Z,100267.78
2022-08-03T03:33:11.141Z,100270.78
2022-08-03T03:35:43.126Z,100272.50
2022-08-03T03:38:16.246Z,100263.59
2022-08-03T03:40:46.959Z,100266.28
2022-08-03T03:43:21.358Z,100268.94
2022-08-03T03:45:53.668Z,100271.75
2022-08-03T03:48:25.684Z,100264.53
2022-08-03T03:50:55.653Z,100270.78
2022-08-03T03:53:27.274Z,100268.56
2022-08-03T03:56:02.897Z,100266.03
2022-08-03T03:58:35.521Z,100271.37
2022-08-03T04:01:05.028Z,100272.53
2022-08-03T04:03:33.642Z,100272.44
2022-08-03T04:06:20.225Z,100273.72
2022-08-03T04:09:00.917Z,100273.47
2022-08-03T04:11:36.286Z,100281.69
2022-08-03T04:14:08.738Z,100276.31
2022-08-03T04:16:43.466Z,100280.44
2022-08-03T04:19:19.795Z,100285.38
2022-08-03T04:21:53.169Z,100289.19
2022-08-03T04:24:29.071Z,100293.44
2022-08-03T04:26:58.400Z,100300.84
2022-08-03T04:29:29.714Z,100298.50
2022-08-03T04:31:59.001Z,100297.03
2022-08-03T04:34:28.726Z,100299.78
2022-08-03T04:37:00.776Z,100299.66
2022-08-03T04:39:34.497Z,100303.16
2022-08-03T04:42:24.124Z,100306.31
2022-08-03T04:45:01.062Z,100309.69
2022-08-03T04:47:32.839Z,100303.44
2022-08-03T04:50:04.933Z,100307.97
2022-08-03T04:52:35.627Z,100313.00
2022-08-03T04:55:05.590Z,100314.06
2022-08-03T04:57:35.126Z,100321.66
2022-08-03T05:00:05.305Z,100318.69
2022-08-03T05:02:35.314Z,100321.72
2022-08-03T05:05:04.383Z,100320.06
2022-08-03T05:07:36.197Z,100326.69
2022-08-03T05:10:16.150Z,100333.03
2022-08-03T05:12:46.453Z,100327.06
2022-08-03T05:15:15.352Z,100329.13
2022-08-03T05:17:43.513Z,100331.09
2022-08-03T05:20:12.750Z,100333.31
2022-08-03T05:22:41.362Z,100343.38
2022-08-03T05:25:10.011Z,100336.06
2022-08-03T05:27:46.206Z,100327.94
2022-08-03T05:30:30.561Z,100334.38
2022-08-03T05:33:05.858Z,100335.19
2022-08-03T05:36:01.701Z,100335.69
2022-08-03T05:38:28.767Z,100334.25
2022-08-03T05:41:22.198Z,100338.59
2022-08-03T05:43:54.818Z,100341.72
2022-08-03T05:46:23.263Z,100338.41
2022-08-03T05:48:54.113Z,100346.53
2022-08-03T05:54:55.920Z,100342.22
2022-08-03T06:01:07.886Z,100351.59
2022-08-03T06:10:34.132Z,100344.63
2022-08-03T06:12:49.598Z,100352.84
2022-08-03T06:15:19.293Z,100355.69
2022-08-03T06:17:48.762Z,100353.47
2022-08-03T06:20:21.390Z,100351.56
2022-08-03T06:23:00.914Z,100355.91
2022-08-03T06:25:31.215Z,100362.03
2022-08-03T06:28:00.622Z,100358.38
2022-08-03T06:30:31.495Z,100353.84
2022-08-03T06:33:00.839Z,100357.22
2022-08-03T06:35:29.299Z,100362.31
2022-08-03T06:37:57.905Z,100357.25
2022-08-03T06:40:34.654Z,100361.19
2022-08-03T06:43:04.284Z,100361.34
2022-08-03T06:45:35.536Z,100367.56
2022-08-03T06:48:13.164Z,100362.91
2022-08-03T06:50:42.554Z,100370.59
2022-08-03T06:53:18.145Z,100368.66
2022-08-03T06:55:54.424Z,100370.91
2022-08-03T06:59:02.581Z,100366.94
2022-08-03T07:08:42.267Z,100372.19
2022-08-03T07:11:12.052Z,100373.84
2022-08-03T07:13:41.381Z,100361.81
2022-08-03T07:16:09.701Z,100367.97
2022-08-03T07:18:44.720Z,100363.84
2022-08-03T07:21:44.331Z,100369.13
2022-08-03T07:24:22.097Z,100363.53
2022-08-03T07:26:53.267Z,100367.97
2022-08-03T07:29:21.303Z,100369.97
2022-08-03T07:31:49.771Z,100364.75
2022-08-03T07:34:19.749Z,100361.69
2022-08-03T07:36:49.586Z,100361.19
2022-08-03T07:39:23.325Z,100368.41
2022-08-03T07:41:52.041Z,100366.22
2022-08-03T07:44:19.987Z,100359.41
2022-08-03T07:46:48.629Z,100367.09
2022-08-03T07:49:18.259Z,100366.37
2022-08-03T07:52:06.744Z,100361.25
2022-08-03T07:54:37.700Z,100364.81
2022-08-03T07:57:05.877Z,100365.00
2022-08-03T07:59:56.393Z,100358.06
2022-08-03T08:02:23.945Z,100363.19
2022-08-03T08:04:53.111Z,100362.56
2022-08-03T08:07:21.825Z,100357.88
2022-08-03T08:09:50.110Z,100357.97
2022-08-03T08:12:19.141Z,100354.84
2022-08-03T08:14:47.359Z,100364.34
2022-08-03T08:17:15.935Z,100355.53
2022-08-03T08:19:51.426Z,100366.59
2022-08-03T08:22:25.880Z,100361.44
2022-08-03T08:25:01.242Z,100362.09
2022-08-03T08:28:29.133Z,100366.50
2022-08-03T08:30:22.657Z,100362.28
2022-08-03T08:32:51.208Z,100352.66
2022-08-03T08:35:19.927Z,100357.19
2022-08-03T08:37:50.717Z,100358.06
2022-08-03T08:40:23.042Z,100352.06
2022-08-03T08:42:58.805Z,100352.41
2022-08-03T08:45:28.158Z,100353.75
2022-08-03T08:48:02.562Z,100348.38
2022-08-03T08:50:34.011Z,100346.34
2022-08-03T08:53:03.892Z,100354.25
2022-08-03T08:55:59.495Z,100354.94
2022-08-03T08:58:23.675Z,100348.56
2022-08-03T09:00:51.567Z,100347.19
2022-08-03T09:03:29.154Z,100349.91
2022-08-03T09:06:02.546Z,100346.22
2022-08-03T09:08:31.626Z,100343.56
2022-08-03T09:11:00.904Z,100339.53
2022-08-03T09:13:30.503Z,100339.72
2022-08-03T09:16:12.337Z,100335.59
2022-08-03T09:18:43.367Z,100336.63
2022-08-03T09:21:32.919Z,100339.56
2022-08-03T09:24:06.150Z,100336.56
2022-08-03T09:26:37.318Z,100329.97
2022-08-03T09:29:14.969Z,100329.69
2022-08-03T09:31:45.572Z,100330.53
2022-08-03T09:34:16.600Z,100325.28
2022-08-03T09:36:47.103Z,100323.41
2022-08-03T09:39:41.561Z,100324.34
2022-08-03T09:42:23.896Z,100327.41
2022-08-03T09:44:53.690Z,100323.09
2022-08-03T09:47:29.663Z,100321.59
2022-08-03T09:50:02.422Z,100316.41
2022-08-03T09:52:50.019Z,100315.84
2022-08-03T09:56:02.374Z,100318.25
2022-08-03T09:58:10.869Z,100318.13
2022-08-03T10:01:24.210Z,100311.91
2022-08-03T10:04:02.907Z,100300.69
2022-08-03T10:06:32.808Z,100292.88
2022-08-03T10:09:12.197Z,100300.16
2022-08-03T10:11:42.300Z,100310.78
2022-08-03T10:14:19.151Z,100298.28
2022-08-03T10:16:49.070Z,100294.72
2022-08-03T10:19:17.474Z,100291.22
2022-08-03T10:21:57.732Z,100284.25
2022-08-03T10:24:34.077Z,100291.37
2022-08-03T10:27:04.130Z,100279.38
2022-08-03T10:29:39.853Z,100284.66
2022-08-03T10:32:44.504Z,100282.22
2022-08-03T10:35:21.053Z,100280.22
2022-08-03T10:38:02.299Z,100275.31
2022-08-03T10:40:47.964Z,100276.50
2022-08-03T10:43:23.177Z,100282.25
2022-08-03T10:45:52.435Z,100278.94
2022-08-03T10:48:21.288Z,100275.19
2022-08-03T10:50:49.961Z,100271.06
2022-08-03T10:53:38.193Z,100262.81
2022-08-03T10:56:51.797Z,100261.84
2022-08-03T10:59:27.742Z,100255.28
2022-08-03T11:01:58.990Z,100253.41
2022-08-03T11:04:30.201Z,100252.50
2022-08-03T11:07:20.702Z,100255.84
2022-08-03T11:09:54.788Z,100245.66
2022-08-03T11:12:31.398Z,100249.94
2022-08-03T11:15:06.760Z,100244.72
2022-08-03T11:17:55.710Z,100232.03
2022-08-03T11:21:08.302Z,100237.25
2022-08-03T11:24:04.989Z,100224.41
2022-08-03T11:26:34.943Z,100235.75
2022-08-03T11:29:30.409Z,100222.78
2022-08-03T11:31:59.127Z,100231.62
2022-08-03T11:34:27.743Z,100225.12
2022-08-03T11:37:22.867Z,100217.31
2022-08-03T11:39:54.879Z,100216.66
2022-08-03T11:42:23.203Z,100211.97
2022-08-03T11:44:52.438Z,100205.50
2022-08-03T11:47:21.892Z,100208.81
2022-08-03T11:49:51.429Z,100213.75
2022-08-03T11:52:27.129Z,100207.81
2022-08-03T11:54:57.587Z,100215.78
2022-08-03T11:59:17.833Z,100213.97
2022-08-03T12:00:33.650Z,100213.91
2022-08-03T12:03:08.192Z,100214.63
2022-08-03T12:05:51.856Z,100205.88
2022-08-03T12:08:32.485Z,100216.53
2022-08-03T12:11:04.596Z,100208.62
2022-08-03T12:14:33.076Z,100203.72
2022-08-03T12:16:25.847Z,100204.62
2022-08-03T12:19:05.664Z,100206.97
2022-08-03T12:21:34.755Z,100197.84
2022-08-03T12:24:04.855Z,100197.34
2022-08-03T12:26:58.926Z,100202.34
2022-08-03T12:29:27.985Z,100192.81
2022-08-03T12:31:56.507Z,100195.25
2022-08-03T12:34:25.206Z,100192.00
2022-08-03T12:37:03.003Z,100184.00
2022-08-03T12:40:03.008Z,100191.28
2022-08-03T12:42:38.738Z,100180.84
2022-08-03T12:45:22.589Z,100179.25
2022-08-03T12:47:57.528Z,100178.03
2022-08-03T12:50:33.751Z,100170.97
2022-08-03T12:53:07.848Z,100168.12
2022-08-03T12:55:40.064Z,100169.81
2022-08-03T12:58:36.261Z,100175.75
2022-08-03T13:01:09.480Z,100165.75
2022-08-03T13:03:50.495Z,100173.66
2022-08-03T13:06:20.585Z,100164.09
2022-08-03T13:08:50.067Z,100152.41
2022-08-03T13:11:55.523Z,100147.44
2022-08-03T13:14:20.206Z,100151.63
2022-08-03T13:16:53.460Z,100156.44
2022-08-03T13:19:51.059Z,100153.47
2022-08-03T13:22:38.748Z,100147.94
2022-08-03T13:25:07.342Z,100151.47
2022-08-03T13:28:09.863Z,100146.66
2022-08-03T13:30:30.249Z,100143.56
2022-08-03T13:33:00.846Z,100139.03
2022-08-03T13:35:29.053Z,100148.72
2022-08-03T13:38:00.338Z,100146.19
2022-08-03T13:40:41.408Z,100141.13
2022-08-03T13:43:09.644Z,100142.44
2022-08-03T13:45:37.867Z,100140.75
2022-08-03T13:48:06.007Z,100135.13
2022-08-03T13:50:41.147Z,100134.09
2022-08-03T13:53:20.489Z,100132.22
2022-08-03T13:55:48.586Z,100130.12
2022-08-03T13:58:21.441Z,100119.91
2022-08-03T14:00:49.281Z,100120.28
2022-08-03T14:03:17.820Z,100121.56
2022-08-03T14:05:45.465Z,100111.13
2022-08-03T14:08:13.188Z,100112.38
2022-08-03T14:10:43.426Z,100111.75
2022-08-03T14:13:17.800Z,100114.16
2022-08-03T14:15:51.216Z,100105.91
2022-08-03T14:18:28.855Z,100106.72
2022-08-03T14:21:06.250Z,100106.53
2022-08-03T14:23:37.698Z,100103.41
2022-08-03T14:26:09.543Z,100101.44
2022-08-03T14:28:37.099Z,100098.56
2022-08-03T14:31:08.432Z,100099.41
2022-08-03T14:33:53.645Z,100102.78
2022-08-03T14:36:21.419Z,100090.47
2022-08-03T14:38:49.617Z,100095.47
2022-08-03T14:41:20.230Z,100086.91
2022-08-03T14:44:00.519Z,100089.41
2022-08-03T14:46:31.445Z,100084.00
2022-08-03T14:50:28.542Z,100083.53
2022-08-03T14:51:51.364Z,100077.63
2022-08-03T14:54:23.174Z,100078.59
2022-08-03T14:56:52.088Z,100069.56
2022-08-03T14:59:21.073Z,100073.22
2022-08-03T15:02:02.256Z,100076.47
2022-08-03T15:04:32.959Z,100083.59
2022-08-03T15:07:01.295Z,100075.44
2022-08-03T15:09:30.241Z,100074.59
2022-08-03T15:12:00.149Z,100076.28
2022-08-03T15:14:33.331Z,100076.69
2022-08-03T15:17:03.170Z,100074.41
2022-08-03T15:20:01.297Z,100075.81
2022-08-03T15:22:25.287Z,100077.31
2022-08-03T15:25:04.280Z,100074.19
2022-08-03T15:28:03.887Z,100072.72
2022-08-03T15:30:36.080Z,100068.19
2022-08-03T15:33:05.657Z,100072.28
2022-08-03T15:35:34.101Z,100068.97
2022-08-03T15:38:06.051Z,100064.37
2022-08-03T15:40:37.823Z,100063.75
2022-08-03T15:43:05.896Z,100068.34
2022-08-03T15:45:36.268Z,100064.37
2022-08-03T15:48:06.126Z,100059.81
2022-08-03T15:50:34.341Z,100062.09
2022-08-03T15:53:02.172Z,100065.66
2022-08-03T15:55:31.661Z,100060.81
2022-08-03T15:59:04.204Z,100060.00
2022-08-03T16:00:47.669Z,100062.91
2022-08-03T16:03:16.454Z,100063.09
2022-08-03T16:05:44.387Z,100055.19
2022-08-03T16:08:13.981Z,100059.12
2022-08-03T16:10:42.904Z,100064.00
2022-08-03T16:13:11.744Z,100051.91
2022-08-03T16:15:39.666Z,100059.41
2022-08-03T16:18:08.027Z,100047.69
2022-08-03T16:20:36.053Z,100050.59
2022-08-03T16:23:10.608Z,100052.06
2022-08-03T16:25:42.071Z,100046.84
2022-08-03T16:28:14.495Z,100041.00
2022-08-03T16:30:45.071Z,100047.66
2022-08-03T16:33:17.395Z,100052.69
2022-08-03T16:35:49.607Z,100036.63
2022-08-03T16:38:19.447Z,100048.09
2022-08-03T16:40:52.213Z,100043.31
2022-08-03T16:43:24.886Z,100042.25
2022-08-03T16:45:53.620Z,100053.94
2022-08-03T16:48:21.990Z,100054.78
2022-08-03T16:50:50.120Z,100052.69
2022-08-03T16:53:51.715Z,100047.03
2022-08-03T16:56:10.121Z,100048.03
2022-08-03T16:58:42.145Z,100049.28
2022-08-03T17:01:22.230Z,100055.72
2022-08-03T17:04:01.990Z,100053.87
2022-08-03T17:06:38.204Z,100055.06
2022-08-03T17:09:18.194Z,100061.34
2022-08-03T17:11:49.907Z,100062.75
2022-08-03T17:14:22.964Z,100064.84
2022-08-03T17:17:01.460Z,100066.25
2022-08-03T17:19:32.341Z,100069.22
2022-08-03T17:22:03.963Z,100066.25
2022-08-03T17:24:35.318Z,100070.16
2022-08-03T17:28:41.934Z,100076.19
2022-08-03T17:30:08.016Z,100069.53
2022-08-03T17:32:42.290Z,100071.41
2022-08-03T17:35:11.365Z,100075.72
2022-08-03T17:37:57.929Z,100078.84
2022-08-03T17:40:32.090Z,100076.44
2022-08-03T17:43:01.009Z,100078.44
2022-08-03T17:45:52.301Z,100075.59
2022-08-03T17:48:18.586Z,100075.69
2022-08-03T17:50:56.355Z,100094.41
2022-08-03T17:53:28.885Z,100082.94
2022-08-03T17:56:42.601Z,100086.81
2022-08-03T17:59:16.730Z,100087.84
2022-08-03T18:02:30.289Z,100091.63
2022-08-03T18:05:16.277Z,100087.72
2022-08-03T18:07:59.512Z,100088.31
2022-08-03T18:10:36.355Z,100087.91
2022-08-03T18:13:24.826Z,100095.56
2022-08-03T18:16:04.470Z,100093.97
2022-08-03T18:18:38.651Z,100099.53
2022-08-03T18:21:16.888Z,100101.91
2022-08-03T18:23:50.101Z,100106.09
2022-08-03T18:26:20.558Z,100113.31
2022-08-03T18:28:53.056Z,100111.06
2022-08-03T18:31:59.982Z,100115.75
2022-08-03T18:34:16.367Z,100117.50
2022-08-03T18:36:49.807Z,100116.44
2022-08-03T18:39:19.560Z,100122.25
2022-08-03T18:41:49.323Z,100120.16
2022-08-03T18:44:37.548Z,100127.41
2022-08-03T18:47:51.110Z,100125.44
2022-08-03T18:50:39.491Z,100130.62
2022-08-03T18:54:03.365Z,100135.66
2022-08-03T18:56:37.926Z,100134.44
2022-08-03T18:59:12.219Z,100134.12
2022-08-03T19:01:59.621Z,100137.81
2022-08-03T19:04:32.623Z,100140.16
2022-08-03T19:07:08.193Z,100145.41
2022-08-03T19:09:56.841Z,100149.59
2022-08-03T19:12:39.845Z,100148.63
2022-08-03T19:15:12.754Z,100157.66
2022-08-03T19:17:53.716Z,100155.97
2022-08-03T19:20:25.798Z,100161.00
2022-08-03T19:22:56.101Z,100163.34
2022-08-03T19:25:35.049Z,100160.47
2022-08-03T19:28:06.010Z,100172.28
2022-08-03T19:30:38.943Z,100172.84
2022-08-03T19:33:12.301Z,100166.00
2022-08-03T19:35:52.102Z,100173.75
2022-08-03T19:38:28.428Z,100161.63
2022-08-03T19:41:04.437Z,100173.09
2022-08-03T19:43:49.338Z,100174.44
2022-08-03T19:46:27.730Z,100177.78
2022-08-03T19:49:14.451Z,100176.59
2022-08-03T19:51:58.465Z,100177.59
2022-08-03T19:54:36.858Z,100178.31
2022-08-03T19:57:19.826Z,100182.09
2022-08-03T19:59:51.561Z,100185.22
2022-08-03T20:02:21.262Z,100181.34
2022-08-03T20:04:57.570Z,100186.31
2022-08-03T20:07:31.055Z,100181.62
2022-08-03T20:10:03.090Z,100186.00
2022-08-03T20:12:39.232Z,100179.41
2022-08-03T20:15:11.120Z,100182.69
2022-08-03T20:17:57.160Z,100181.28
2022-08-03T20:20:39.568Z,100185.31
2022-08-03T20:23:12.994Z,100185.91
2022-08-03T20:25:58.391Z,100185.56
2022-08-03T20:28:49.639Z,100180.53
2022-08-03T20:31:32.093Z,100184.00
2022-08-03T20:34:10.723Z,100187.66
2022-08-03T20:36:39.887Z,100186.78
2022-08-03T20:39:09.197Z,100189.34
2022-08-03T20:41:38.635Z,100183.47
2022-08-03T20:44:08.349Z,100184.94
2022-08-03T20:46:51.666Z,100187.66
2022-08-03T20:49:26.188Z,100185.53
2022-08-03T20:51:54.761Z,100183.16
2022-08-03T20:54:30.971Z,100177.91
2022-08-03T20:59:51.078Z,100183.78
2022-08-03T21:02:29.882Z,100181.25
2022-08-03T21:05:03.471Z,100178.03
2022-08-03T21:08:06.291Z,100181.16
2022-08-03T21:10:41.965Z,100177.66
2022-08-03T21:13:13.764Z,100181.31
2022-08-03T21:13:18.180Z,100182.31
2022-08-03T21:16:06.736Z,100184.69
2022-08-03T21:18:45.043Z,100187.62
2022-08-03T21:21:15.828Z,100187.47
2022-08-03T21:23:48.619Z,100187.09
2022-08-03T21:26:25.341Z,100187.91
2022-08-03T21:28:56.309Z,100194.06
2022-08-03T21:31:26.487Z,100194.41
2022-08-03T21:33:58.844Z,100193.84
2022-08-03T21:36:29.319Z,100191.16
2022-08-03T21:38:59.041Z,100204.69
2022-08-03T21:41:29.805Z,100200.56
2022-08-03T21:43:59.691Z,100204.06
2022-08-03T21:46:30.948Z,100204.69
2022-08-03T21:50:07.141Z,100213.22
2022-08-03T21:51:50.659Z,100208.59
2022-08-03T21:54:21.798Z,100218.16
2022-08-03T21:56:51.227Z,100206.03
2022-08-03T21:59:20.561Z,100213.78
2022-08-03T22:01:51.410Z,100214.31
2022-08-03T22:04:50.410Z,100217.88
2022-08-03T22:07:14.684Z,100217.75
2022-08-03T22:09:51.029Z,100220.19
2022-08-03T22:12:26.201Z,100224.34
2022-08-03T22:15:01.099Z,100224.63
2022-08-03T22:17:55.146Z,100230.31
2022-08-03T22:20:29.311Z,100223.25
2022-08-03T22:23:05.946Z,100229.34
2022-08-03T22:25:40.002Z,100222.53
2022-08-03T22:28:12.065Z,100226.53
2022-08-03T22:30:43.247Z,100225.25
2022-08-03T22:33:17.301Z,100223.53
2022-08-03T22:35:51.376Z,100226.50
2022-08-03T22:38:28.076Z,100231.69
2022-08-03T22:40:59.748Z,100232.69
2022-08-03T22:43:29.232Z,100233.28
2022-08-03T22:46:09.616Z,100225.38
2022-08-03T22:48:42.335Z,100230.53
2022-08-03T22:51:20.605Z,100235.00
2022-08-03T22:53:51.311Z,100233.34
2022-08-03T22:56:22.875Z,100236.34
2022-08-03T22:58:52.720Z,100229.69
2022-08-03T23:01:27.116Z,100237.03
2022-08-03T23:04:02.288Z,100234.16
2022-08-03T23:06:39.318Z,100232.12
2022-08-03T23:09:14.355Z,100235.25
2022-08-03T23:11:46.372Z,100236.53
2022-08-03T23:14:19.843Z,100243.91
2022-08-03T23:16:54.612Z,100237.78
2022-08-03T23:19:27.784Z,100241.78
2022-08-03T23:22:05.798Z,100239.00
2022-08-03T23:24:36.739Z,100253.72
2022-08-03T23:27:08.594Z,100243.84
2022-08-03T23:29:40.643Z,100247.31
2022-08-03T23:32:14.296Z,100239.44
2022-08-03T23:35:04.852Z,100246.78
2022-08-03T23:38:07.244Z,100251.59
2022-08-03T23:40:31.761Z,100248.66
2022-08-03T23:43:03.774Z,100253.84
2022-08-03T23:45:36.741Z,100247.28
2022-08-03T23:48:08.883Z,100240.16
2022-08-03T23:50:46.383Z,100245.38
2022-08-03T23:53:26.963Z,100247.34
2022-08-03T23:56:25.252Z,100248.03
2022-08-03T23:59:01.859Z,100253.13
